sensor_id;sensor_type;location;lat;lon;timestamp;P1;durP1;ratioP1;P2;durP2;ratioP2
9056;SDS011;4563;54.756;9.400;2023-04-05T00:01:58;3.20;;;1.00;;
9056;SDS011;4563;54.756;9.400;2023-04-05T00:04:25;2.10;;;1.37;;
9056;SDS011;4563;54.756;9.400;2023-04-05T00:06:52;2.23;;;1.07;;
9056;SDS011;4563;54.756;9.400;2023-04-05T00:09:22;1.67;;;1.00;;
9056;SDS011;4563;54.756;9.400;2023-04-05T00:11:50;3.43;;;1.27;;
9056;SDS011;4563;54.756;9.400;2023-04-05T00:14:17;5.17;;;1.30;;
9056;SDS011;4563;54.756;9.400;2023-04-05T00:16:43;3.30;;;1.17;;
9056;SDS011;4563;54.756;9.400;2023-04-05T00:19:10;2.23;;;1.30;;
9056;SDS011;4563;54.756;9.400;2023-04-05T00:21:38;4.43;;;1.37;;
9056;SDS011;4563;54.756;9.400;2023-04-05T00:24:05;2.73;;;1.17;;
9056;SDS011;4563;54.756;9.400;2023-04-05T00:26:34;1.10;;;1.03;;
9056;SDS011;4563;54.756;9.400;2023-04-05T00:29:01;1.47;;;0.90;;
9056;SDS011;4563;54.756;9.400;2023-04-05T00:31:28;3.60;;;1.30;;
9056;SDS011;4563;54.756;9.400;2023-04-05T00:33:55;7.63;;;1.13;;
9056;SDS011;4563;54.756;9.400;2023-04-05T00:36:22;3.57;;;2.17;;
9056;SDS011;4563;54.756;9.400;2023-04-05T00:38:48;1.93;;;0.93;;
9056;SDS011;4563;54.756;9.400;2023-04-05T00:41:15;2.17;;;1.03;;
9056;SDS011;4563;54.756;9.400;2023-04-05T00:43:43;3.07;;;0.93;;
9056;SDS011;4563;54.756;9.400;2023-04-05T00:46:10;2.70;;;0.90;;
9056;SDS011;4563;54.756;9.400;2023-04-05T00:48:37;1.53;;;1.10;;
9056;SDS011;4563;54.756;9.400;2023-04-05T00:51:04;1.43;;;1.13;;
9056;SDS011;4563;54.756;9.400;2023-04-05T00:53:33;2.30;;;1.30;;
9056;SDS011;4563;54.756;9.400;2023-04-05T00:56:00;2.90;;;1.30;;
9056;SDS011;4563;54.756;9.400;2023-04-05T00:58:28;2.83;;;1.13;;
9056;SDS011;4563;54.756;9.400;2023-04-05T01:00:59;5.70;;;1.30;;
9056;SDS011;4563;54.756;9.400;2023-04-05T01:03:31;1.60;;;1.03;;
9056;SDS011;4563;54.756;9.400;2023-04-05T01:06:03;2.87;;;0.90;;
9056;SDS011;4563;54.756;9.400;2023-04-05T01:08:39;3.10;;;1.10;;
9056;SDS011;4563;54.756;9.400;2023-04-05T01:11:14;1.90;;;1.07;;
9056;SDS011;4563;54.756;9.400;2023-04-05T01:13:43;2.93;;;1.37;;
9056;SDS011;4563;54.756;9.400;2023-04-05T01:16:13;2.53;;;1.07;;
9056;SDS011;4563;54.756;9.400;2023-04-05T01:18:40;3.50;;;1.20;;
9056;SDS011;4563;54.756;9.400;2023-04-05T01:21:16;7.20;;;1.00;;
9056;SDS011;4563;54.756;9.400;2023-04-05T01:24:15;1.13;;;0.90;;
9056;SDS011;4563;54.756;9.400;2023-04-05T01:26:57;2.30;;;1.10;;
9056;SDS011;4563;54.756;9.400;2023-04-05T01:32:29;1.60;;;0.97;;
9056;SDS011;4563;54.756;9.400;2023-04-05T01:35:08;4.40;;;0.90;;
9056;SDS011;4563;54.756;9.400;2023-04-05T01:37:41;1.80;;;1.40;;
9056;SDS011;4563;54.756;9.400;2023-04-05T01:40:13;2.50;;;1.00;;
9056;SDS011;4563;54.756;9.400;2023-04-05T01:42:41;1.67;;;1.27;;
9056;SDS011;4563;54.756;9.400;2023-04-05T01:45:11;1.23;;;1.13;;
9056;SDS011;4563;54.756;9.400;2023-04-05T01:47:38;2.10;;;1.20;;
9056;SDS011;4563;54.756;9.400;2023-04-05T01:50:05;1.13;;;1.03;;
9056;SDS011;4563;54.756;9.400;2023-04-05T01:52:33;1.10;;;1.00;;
9056;SDS011;4563;54.756;9.400;2023-04-05T01:55:00;1.83;;;1.23;;
9056;SDS011;4563;54.756;9.400;2023-04-05T01:57:28;4.70;;;1.47;;
9056;SDS011;4563;54.756;9.400;2023-04-05T01:59:55;2.57;;;1.30;;
9056;SDS011;4563;54.756;9.400;2023-04-05T02:02:23;3.40;;;1.00;;
9056;SDS011;4563;54.756;9.400;2023-04-05T02:04:52;2.60;;;1.00;;
9056;SDS011;4563;54.756;9.400;2023-04-05T02:07:22;2.97;;;0.97;;
9056;SDS011;4563;54.756;9.400;2023-04-05T02:09:51;1.57;;;1.20;;
9056;SDS011;4563;54.756;9.400;2023-04-05T02:12:17;2.60;;;1.10;;
9056;SDS011;4563;54.756;9.400;2023-04-05T02:14:44;1.90;;;0.93;;
9056;SDS011;4563;54.756;9.400;2023-04-05T02:17:11;2.30;;;1.10;;
9056;SDS011;4563;54.756;9.400;2023-04-05T02:19:39;1.37;;;0.97;;
9056;SDS011;4563;54.756;9.400;2023-04-05T02:22:06;4.40;;;1.33;;
9056;SDS011;4563;54.756;9.400;2023-04-05T02:24:33;1.43;;;1.17;;
9056;SDS011;4563;54.756;9.400;2023-04-05T02:27:00;1.93;;;1.20;;
9056;SDS011;4563;54.756;9.400;2023-04-05T02:29:30;2.43;;;1.20;;
9056;SDS011;4563;54.756;9.400;2023-04-05T02:31:59;2.40;;;1.30;;
9056;SDS011;4563;54.756;9.400;2023-04-05T02:34:26;3.50;;;1.10;;
9056;SDS011;4563;54.756;9.400;2023-04-05T02:36:54;2.83;;;2.13;;
9056;SDS011;4563;54.756;9.400;2023-04-05T02:39:21;16.53;;;9.30;;
9056;SDS011;4563;54.756;9.400;2023-04-05T02:41:48;5.00;;;2.60;;
9056;SDS011;4563;54.756;9.400;2023-04-05T02:44:15;2.73;;;1.33;;
9056;SDS011;4563;54.756;9.400;2023-04-05T02:46:41;2.70;;;1.60;;
9056;SDS011;4563;54.756;9.400;2023-04-05T02:49:08;2.20;;;1.40;;
9056;SDS011;4563;54.756;9.400;2023-04-05T02:51:35;1.90;;;1.30;;
9056;SDS011;4563;54.756;9.400;2023-04-05T02:54:03;6.10;;;1.37;;
9056;SDS011;4563;54.756;9.400;2023-04-05T02:56:30;1.73;;;1.60;;
9056;SDS011;4563;54.756;9.400;2023-04-05T02:58:57;2.00;;;1.67;;
9056;SDS011;4563;54.756;9.400;2023-04-05T03:01:24;2.40;;;1.57;;
9056;SDS011;4563;54.756;9.400;2023-04-05T03:03:50;1.60;;;1.50;;
9056;SDS011;4563;54.756;9.400;2023-04-05T03:06:17;2.03;;;1.27;;
9056;SDS011;4563;54.756;9.400;2023-04-05T03:08:44;6.80;;;1.83;;
9056;SDS011;4563;54.756;9.400;2023-04-05T03:11:14;4.00;;;1.47;;
9056;SDS011;4563;54.756;9.400;2023-04-05T03:13:41;3.60;;;1.40;;
9056;SDS011;4563;54.756;9.400;2023-04-05T03:16:08;6.00;;;1.50;;
9056;SDS011;4563;54.756;9.400;2023-04-05T03:18:34;2.33;;;1.27;;
9056;SDS011;4563;54.756;9.400;2023-04-05T03:21:01;2.37;;;1.23;;
9056;SDS011;4563;54.756;9.400;2023-04-05T03:23:29;2.00;;;1.30;;
9056;SDS011;4563;54.756;9.400;2023-04-05T03:25:57;5.53;;;1.87;;
9056;SDS011;4563;54.756;9.400;2023-04-05T03:28:27;3.10;;;1.60;;
9056;SDS011;4563;54.756;9.400;2023-04-05T03:30:56;3.93;;;1.20;;
9056;SDS011;4563;54.756;9.400;2023-04-05T03:33:23;3.87;;;1.53;;
9056;SDS011;4563;54.756;9.400;2023-04-05T03:35:49;1.90;;;1.10;;
9056;SDS011;4563;54.756;9.400;2023-04-05T03:38:16;2.57;;;1.30;;
9056;SDS011;4563;54.756;9.400;2023-04-05T03:40:43;2.40;;;1.27;;
9056;SDS011;4563;54.756;9.400;2023-04-05T03:43:10;4.93;;;1.40;;
9056;SDS011;4563;54.756;9.400;2023-04-05T03:45:38;3.53;;;1.30;;
9056;SDS011;4563;54.756;9.400;2023-04-05T03:48:05;1.60;;;1.00;;
9056;SDS011;4563;54.756;9.400;2023-04-05T03:50:32;1.90;;;1.23;;
9056;SDS011;4563;54.756;9.400;2023-04-05T03:52:59;4.43;;;1.50;;
9056;SDS011;4563;54.756;9.400;2023-04-05T03:55:25;4.17;;;1.57;;
9056;SDS011;4563;54.756;9.400;2023-04-05T03:57:52;1.20;;;1.10;;
9056;SDS011;4563;54.756;9.400;2023-04-05T04:00:20;3.53;;;1.47;;
9056;SDS011;4563;54.756;9.400;2023-04-05T04:02:49;1.67;;;1.30;;
9056;SDS011;4563;54.756;9.400;2023-04-05T04:05:17;5.13;;;1.20;;
9056;SDS011;4563;54.756;9.400;2023-04-05T04:07:45;4.13;;;1.27;;
9056;SDS011;4563;54.756;9.400;2023-04-05T04:10:13;3.37;;;1.00;;
9056;SDS011;4563;54.756;9.400;2023-04-05T04:12:42;2.30;;;1.10;;
9056;SDS011;4563;54.756;9.400;2023-04-05T04:15:10;2.07;;;1.80;;
9056;SDS011;4563;54.756;9.400;2023-04-05T04:17:37;2.67;;;1.40;;
9056;SDS011;4563;54.756;9.400;2023-04-05T04:20:06;3.37;;;1.20;;
9056;SDS011;4563;54.756;9.400;2023-04-05T04:22:35;1.50;;;1.03;;
9056;SDS011;4563;54.756;9.400;2023-04-05T04:25:03;2.83;;;1.40;;
9056;SDS011;4563;54.756;9.400;2023-04-05T04:27:33;4.33;;;1.13;;
9056;SDS011;4563;54.756;9.400;2023-04-05T04:30:03;1.50;;;1.23;;
9056;SDS011;4563;54.756;9.400;2023-04-05T04:32:32;1.57;;;1.43;;
9056;SDS011;4563;54.756;9.400;2023-04-05T04:35:20;2.50;;;1.50;;
9056;SDS011;4563;54.756;9.400;2023-04-05T04:37:50;3.20;;;1.47;;
9056;SDS011;4563;54.756;9.400;2023-04-05T04:40:18;2.40;;;1.30;;
9056;SDS011;4563;54.756;9.400;2023-04-05T04:42:46;2.67;;;1.30;;
9056;SDS011;4563;54.756;9.400;2023-04-05T04:45:15;4.00;;;1.17;;
9056;SDS011;4563;54.756;9.400;2023-04-05T04:47:43;2.50;;;1.53;;
9056;SDS011;4563;54.756;9.400;2023-04-05T04:50:11;2.10;;;1.37;;
9056;SDS011;4563;54.756;9.400;2023-04-05T04:52:41;1.53;;;1.30;;
9056;SDS011;4563;54.756;9.400;2023-04-05T04:55:08;2.83;;;1.20;;
9056;SDS011;4563;54.756;9.400;2023-04-05T04:57:37;7.53;;;1.80;;
9056;SDS011;4563;54.756;9.400;2023-04-05T05:00:05;1.67;;;1.40;;
9056;SDS011;4563;54.756;9.400;2023-04-05T05:02:37;2.20;;;1.63;;
9056;SDS011;4563;54.756;9.400;2023-04-05T05:05:07;3.17;;;1.70;;
9056;SDS011;4563;54.756;9.400;2023-04-05T05:07:34;2.17;;;1.40;;
9056;SDS011;4563;54.756;9.400;2023-04-05T05:10:09;1.67;;;1.40;;
9056;SDS011;4563;54.756;9.400;2023-04-05T05:12:36;3.80;;;1.70;;
9056;SDS011;4563;54.756;9.400;2023-04-05T05:15:04;1.50;;;1.23;;
9056;SDS011;4563;54.756;9.400;2023-04-05T05:17:31;2.80;;;1.43;;
9056;SDS011;4563;54.756;9.400;2023-04-05T05:19:58;3.93;;;1.80;;
9056;SDS011;4563;54.756;9.400;2023-04-05T05:22:25;3.80;;;1.50;;
9056;SDS011;4563;54.756;9.400;2023-04-05T05:24:52;5.13;;;1.50;;
9056;SDS011;4563;54.756;9.400;2023-04-05T05:27:20;2.80;;;1.47;;
9056;SDS011;4563;54.756;9.400;2023-04-05T05:29:47;4.03;;;1.67;;
9056;SDS011;4563;54.756;9.400;2023-04-05T05:32:14;4.67;;;1.90;;
9056;SDS011;4563;54.756;9.400;2023-04-05T05:34:41;1.80;;;1.70;;
9056;SDS011;4563;54.756;9.400;2023-04-05T05:37:09;2.43;;;1.57;;
9056;SDS011;4563;54.756;9.400;2023-04-05T05:39:36;1.93;;;1.83;;
9056;SDS011;4563;54.756;9.400;2023-04-05T05:42:03;1.90;;;1.57;;
9056;SDS011;4563;54.756;9.400;2023-04-05T05:44:31;4.67;;;2.03;;
9056;SDS011;4563;54.756;9.400;2023-04-05T05:46:58;8.13;;;1.97;;
9056;SDS011;4563;54.756;9.400;2023-04-05T05:49:24;8.47;;;2.23;;
9056;SDS011;4563;54.756;9.400;2023-04-05T05:51:51;6.87;;;2.10;;
9056;SDS011;4563;54.756;9.400;2023-04-05T05:54:18;3.77;;;2.77;;
9056;SDS011;4563;54.756;9.400;2023-04-05T05:56:45;4.70;;;2.07;;
9056;SDS011;4563;54.756;9.400;2023-04-05T05:59:12;4.03;;;2.83;;
9056;SDS011;4563;54.756;9.400;2023-04-05T06:01:41;5.83;;;2.77;;
9056;SDS011;4563;54.756;9.400;2023-04-05T06:04:10;7.93;;;2.40;;
9056;SDS011;4563;54.756;9.400;2023-04-05T06:06:37;5.67;;;1.93;;
9056;SDS011;4563;54.756;9.400;2023-04-05T06:09:04;4.27;;;2.63;;
9056;SDS011;4563;54.756;9.400;2023-04-05T06:11:31;6.13;;;2.73;;
9056;SDS011;4563;54.756;9.400;2023-04-05T06:13:58;11.47;;;3.17;;
9056;SDS011;4563;54.756;9.400;2023-04-05T06:16:24;7.83;;;3.50;;
9056;SDS011;4563;54.756;9.400;2023-04-05T06:18:53;16.17;;;4.40;;
9056;SDS011;4563;54.756;9.400;2023-04-05T06:21:20;9.97;;;3.57;;
9056;SDS011;4563;54.756;9.400;2023-04-05T06:23:47;10.47;;;3.33;;
9056;SDS011;4563;54.756;9.400;2023-04-05T06:26:17;6.07;;;2.97;;
9056;SDS011;4563;54.756;9.400;2023-04-05T06:28:45;3.33;;;2.47;;
9056;SDS011;4563;54.756;9.400;2023-04-05T06:31:13;8.80;;;3.23;;
9056;SDS011;4563;54.756;9.400;2023-04-05T06:33:41;4.07;;;2.20;;
9056;SDS011;4563;54.756;9.400;2023-04-05T06:36:09;3.93;;;2.67;;
9056;SDS011;4563;54.756;9.400;2023-04-05T06:38:36;4.63;;;2.30;;
9056;SDS011;4563;54.756;9.400;2023-04-05T06:41:03;4.03;;;3.00;;
9056;SDS011;4563;54.756;9.400;2023-04-05T06:43:30;2.50;;;2.30;;
9056;SDS011;4563;54.756;9.400;2023-04-05T06:45:57;6.33;;;2.70;;
9056;SDS011;4563;54.756;9.400;2023-04-05T06:48:25;9.10;;;2.90;;
9056;SDS011;4563;54.756;9.400;2023-04-05T06:50:56;3.57;;;2.70;;
9056;SDS011;4563;54.756;9.400;2023-04-05T06:53:24;16.60;;;4.07;;
9056;SDS011;4563;54.756;9.400;2023-04-05T06:55:51;16.30;;;3.57;;
9056;SDS011;4563;54.756;9.400;2023-04-05T06:58:18;6.17;;;3.03;;
9056;SDS011;4563;54.756;9.400;2023-04-05T07:00:45;18.30;;;4.33;;
9056;SDS011;4563;54.756;9.400;2023-04-05T07:03:12;12.00;;;3.10;;
9056;SDS011;4563;54.756;9.400;2023-04-05T07:05:39;4.07;;;2.80;;
9056;SDS011;4563;54.756;9.400;2023-04-05T07:08:06;9.80;;;2.60;;
9056;SDS011;4563;54.756;9.400;2023-04-05T07:10:34;9.23;;;3.00;;
9056;SDS011;4563;54.756;9.400;2023-04-05T07:13:04;9.57;;;2.87;;
9056;SDS011;4563;54.756;9.400;2023-04-05T07:15:31;8.60;;;3.07;;
9056;SDS011;4563;54.756;9.400;2023-04-05T07:17:58;15.37;;;3.03;;
9056;SDS011;4563;54.756;9.400;2023-04-05T07:20:25;5.63;;;3.20;;
9056;SDS011;4563;54.756;9.400;2023-04-05T07:22:51;5.70;;;2.73;;
9056;SDS011;4563;54.756;9.400;2023-04-05T07:25:18;5.10;;;3.60;;
9056;SDS011;4563;54.756;9.400;2023-04-05T07:27:46;5.43;;;3.20;;
9056;SDS011;4563;54.756;9.400;2023-04-05T07:30:13;7.70;;;4.10;;
9056;SDS011;4563;54.756;9.400;2023-04-05T07:32:40;7.33;;;3.30;;
9056;SDS011;4563;54.756;9.400;2023-04-05T07:35:07;7.43;;;3.60;;
9056;SDS011;4563;54.756;9.400;2023-04-05T07:37:34;9.47;;;3.53;;
9056;SDS011;4563;54.756;9.400;2023-04-05T07:40:01;5.80;;;3.47;;
9056;SDS011;4563;54.756;9.400;2023-04-05T07:42:30;5.17;;;3.63;;
9056;SDS011;4563;54.756;9.400;2023-04-05T07:44:58;4.33;;;3.17;;
9056;SDS011;4563;54.756;9.400;2023-04-05T07:47:25;14.23;;;3.20;;
9056;SDS011;4563;54.756;9.400;2023-04-05T07:49:52;10.10;;;3.63;;
9056;SDS011;4563;54.756;9.400;2023-04-05T07:52:19;6.50;;;3.37;;
9056;SDS011;4563;54.756;9.400;2023-04-05T07:54:45;6.70;;;3.57;;
9056;SDS011;4563;54.756;9.400;2023-04-05T07:57:15;4.20;;;3.33;;
9056;SDS011;4563;54.756;9.400;2023-04-05T07:59:42;5.63;;;3.60;;
9056;SDS011;4563;54.756;9.400;2023-04-05T08:02:10;5.97;;;3.30;;
9056;SDS011;4563;54.756;9.400;2023-04-05T08:04:37;8.53;;;3.97;;
9056;SDS011;4563;54.756;9.400;2023-04-05T08:07:04;11.80;;;4.13;;
9056;SDS011;4563;54.756;9.400;2023-04-05T08:09:33;13.60;;;3.50;;
9056;SDS011;4563;54.756;9.400;2023-04-05T08:12:01;7.33;;;4.43;;
9056;SDS011;4563;54.756;9.400;2023-04-05T08:14:28;11.53;;;5.40;;
9056;SDS011;4563;54.756;9.400;2023-04-05T08:16:55;18.47;;;6.33;;
9056;SDS011;4563;54.756;9.400;2023-04-05T08:19:23;11.13;;;5.50;;
9056;SDS011;4563;54.756;9.400;2023-04-05T08:21:51;16.03;;;5.43;;
9056;SDS011;4563;54.756;9.400;2023-04-05T08:24:18;11.93;;;5.13;;
9056;SDS011;4563;54.756;9.400;2023-04-05T08:26:44;10.03;;;4.87;;
9056;SDS011;4563;54.756;9.400;2023-04-05T08:29:11;11.13;;;4.40;;
9056;SDS011;4563;54.756;9.400;2023-04-05T08:31:38;6.77;;;4.53;;
9056;SDS011;4563;54.756;9.400;2023-04-05T08:34:05;15.03;;;4.23;;
9056;SDS011;4563;54.756;9.400;2023-04-05T08:36:33;8.80;;;3.60;;
9056;SDS011;4563;54.756;9.400;2023-04-05T08:39:00;5.80;;;3.97;;
9056;SDS011;4563;54.756;9.400;2023-04-05T08:41:29;6.57;;;4.30;;
9056;SDS011;4563;54.756;9.400;2023-04-05T08:44:02;5.63;;;4.20;;
9056;SDS011;4563;54.756;9.400;2023-04-05T08:46:30;8.17;;;3.87;;
9056;SDS011;4563;54.756;9.400;2023-04-05T08:48:58;9.17;;;3.67;;
9056;SDS011;4563;54.756;9.400;2023-04-05T08:51:30;7.00;;;3.43;;
9056;SDS011;4563;54.756;9.400;2023-04-05T08:53:58;6.00;;;3.40;;
9056;SDS011;4563;54.756;9.400;2023-04-05T08:56:26;6.20;;;3.40;;
9056;SDS011;4563;54.756;9.400;2023-04-05T08:59:00;7.20;;;2.70;;
9056;SDS011;4563;54.756;9.400;2023-04-05T09:01:28;11.83;;;3.13;;
9056;SDS011;4563;54.756;9.400;2023-04-05T09:04:04;4.83;;;3.13;;
9056;SDS011;4563;54.756;9.400;2023-04-05T09:06:32;4.37;;;2.70;;
9056;SDS011;4563;54.756;9.400;2023-04-05T09:09:04;6.03;;;2.90;;
9056;SDS011;4563;54.756;9.400;2023-04-05T09:11:33;5.23;;;2.20;;
9056;SDS011;4563;54.756;9.400;2023-04-05T09:14:01;5.97;;;3.40;;
9056;SDS011;4563;54.756;9.400;2023-04-05T09:16:28;9.50;;;3.00;;
9056;SDS011;4563;54.756;9.400;2023-04-05T09:18:56;5.97;;;2.13;;
9056;SDS011;4563;54.756;9.400;2023-04-05T09:21:23;2.53;;;2.07;;
9056;SDS011;4563;54.756;9.400;2023-04-05T09:23:51;4.03;;;2.50;;
9056;SDS011;4563;54.756;9.400;2023-04-05T09:26:21;4.37;;;2.33;;
9056;SDS011;4563;54.756;9.400;2023-04-05T09:28:49;6.07;;;2.70;;
9056;SDS011;4563;54.756;9.400;2023-04-05T09:31:30;4.57;;;2.30;;
9056;SDS011;4563;54.756;9.400;2023-04-05T09:33:58;2.87;;;2.00;;
9056;SDS011;4563;54.756;9.400;2023-04-05T09:36:26;2.60;;;2.17;;
9056;SDS011;4563;54.756;9.400;2023-04-05T09:38:54;3.37;;;2.03;;
9056;SDS011;4563;54.756;9.400;2023-04-05T09:41:31;3.63;;;1.80;;
9056;SDS011;4563;54.756;9.400;2023-04-05T09:43:58;2.67;;;1.73;;
9056;SDS011;4563;54.756;9.400;2023-04-05T09:46:27;1.93;;;1.77;;
9056;SDS011;4563;54.756;9.400;2023-04-05T09:48:55;3.90;;;2.00;;
9056;SDS011;4563;54.756;9.400;2023-04-05T09:51:22;1.60;;;1.37;;
9056;SDS011;4563;54.756;9.400;2023-04-05T09:53:56;2.37;;;1.80;;
9056;SDS011;4563;54.756;9.400;2023-04-05T09:56:24;4.10;;;1.60;;
9056;SDS011;4563;54.756;9.400;2023-04-05T09:58:52;2.73;;;1.43;;
9056;SDS011;4563;54.756;9.400;2023-04-05T10:01:25;2.00;;;1.67;;
9056;SDS011;4563;54.756;9.400;2023-04-05T10:03:52;2.80;;;1.80;;
9056;SDS011;4563;54.756;9.400;2023-04-05T10:06:19;5.20;;;1.67;;
9056;SDS011;4563;54.756;9.400;2023-04-05T10:08:46;2.17;;;1.70;;
9056;SDS011;4563;54.756;9.400;2023-04-05T10:11:15;3.40;;;1.70;;
9056;SDS011;4563;54.756;9.400;2023-04-05T10:13:43;2.53;;;1.50;;
9056;SDS011;4563;54.756;9.400;2023-04-05T10:16:12;2.73;;;1.30;;
9056;SDS011;4563;54.756;9.400;2023-04-05T10:18:47;1.70;;;1.50;;
9056;SDS011;4563;54.756;9.400;2023-04-05T10:21:20;4.93;;;1.60;;
9056;SDS011;4563;54.756;9.400;2023-04-05T10:23:49;3.00;;;1.30;;
9056;SDS011;4563;54.756;9.400;2023-04-05T10:26:20;0.30;;;0.30;;
9056;SDS011;4563;54.756;9.400;2023-04-05T10:28:58;0.60;;;0.60;;
9056;SDS011;4563;54.756;9.400;2023-04-05T10:31:34;7.20;;;1.30;;
9056;SDS011;4563;54.756;9.400;2023-04-05T10:34:11;9.03;;;0.80;;
9056;SDS011;4563;54.756;9.400;2023-04-05T10:36:48;5.87;;;1.10;;
9056;SDS011;4563;54.756;9.400;2023-04-05T10:39:19;2.10;;;0.80;;
9056;SDS011;4563;54.756;9.400;2023-04-05T10:41:53;1.07;;;0.90;;
9056;SDS011;4563;54.756;9.400;2023-04-05T10:44:25;1.03;;;0.60;;
9056;SDS011;4563;54.756;9.400;2023-04-05T10:46:53;1.00;;;0.67;;
9056;SDS011;4563;54.756;9.400;2023-04-05T10:49:25;1.13;;;0.47;;
9056;SDS011;4563;54.756;9.400;2023-04-05T10:51:57;1.43;;;0.53;;
9056;SDS011;4563;54.756;9.400;2023-04-05T10:54:24;45.23;;;2.07;;
9056;SDS011;4563;54.756;9.400;2023-04-05T10:56:51;1.00;;;0.90;;
9056;SDS011;4563;54.756;9.400;2023-04-05T10:59:19;1.80;;;0.67;;
9056;SDS011;4563;54.756;9.400;2023-04-05T11:01:47;0.80;;;0.70;;
9056;SDS011;4563;54.756;9.400;2023-04-05T11:04:16;0.67;;;0.60;;
9056;SDS011;4563;54.756;9.400;2023-04-05T11:06:42;0.77;;;0.50;;
9056;SDS011;4563;54.756;9.400;2023-04-05T11:09:13;0.90;;;0.60;;
9056;SDS011;4563;54.756;9.400;2023-04-05T11:11:42;0.60;;;0.60;;
9056;SDS011;4563;54.756;9.400;2023-04-05T11:14:17;5.30;;;0.80;;
9056;SDS011;4563;54.756;9.400;2023-04-05T11:16:46;0.87;;;0.60;;
9056;SDS011;4563;54.756;9.400;2023-04-05T11:19:18;3.70;;;0.50;;
9056;SDS011;4563;54.756;9.400;2023-04-05T11:21:46;0.67;;;0.50;;
9056;SDS011;4563;54.756;9.400;2023-04-05T11:24:13;0.93;;;0.40;;
9056;SDS011;4563;54.756;9.400;2023-04-05T11:26:51;1.40;;;0.60;;
9056;SDS011;4563;54.756;9.400;2023-04-05T11:32:10;0.70;;;0.37;;
9056;SDS011;4563;54.756;9.400;2023-04-05T11:34:41;0.67;;;0.40;;
9056;SDS011;4563;54.756;9.400;2023-04-05T11:37:09;1.17;;;0.97;;
9056;SDS011;4563;54.756;9.400;2023-04-05T11:39:37;0.40;;;0.40;;
9056;SDS011;4563;54.756;9.400;2023-04-05T11:42:05;0.90;;;0.77;;
9056;SDS011;4563;54.756;9.400;2023-04-05T11:44:43;2.80;;;2.60;;
9056;SDS011;4563;54.756;9.400;2023-04-05T11:47:11;0.50;;;0.33;;
9056;SDS011;4563;54.756;9.400;2023-04-05T11:49:43;0.90;;;0.50;;
9056;SDS011;4563;54.756;9.400;2023-04-05T11:52:14;10.00;;;8.47;;
9056;SDS011;4563;54.756;9.400;2023-04-05T11:54:42;1.60;;;1.13;;
9056;SDS011;4563;54.756;9.400;2023-04-05T11:57:13;4.93;;;4.43;;
9056;SDS011;4563;54.756;9.400;2023-04-05T11:59:44;5.03;;;4.50;;
9056;SDS011;4563;54.756;9.400;2023-04-05T12:02:11;3.67;;;2.50;;
9056;SDS011;4563;54.756;9.400;2023-04-05T12:04:41;1.10;;;0.50;;
9056;SDS011;4563;54.756;9.400;2023-04-05T12:07:12;0.70;;;0.70;;
9056;SDS011;4563;54.756;9.400;2023-04-05T12:12:40;7.50;;;1.27;;
9056;SDS011;4563;54.756;9.400;2023-04-05T12:15:09;0.50;;;0.50;;
9056;SDS011;4563;54.756;9.400;2023-04-05T12:17:42;0.47;;;0.40;;
9056;SDS011;4563;54.756;9.400;2023-04-05T12:20:13;2.17;;;0.20;;
9056;SDS011;4563;54.756;9.400;2023-04-05T12:22:41;1.10;;;0.50;;
9056;SDS011;4563;54.756;9.400;2023-04-05T12:25:09;0.53;;;0.50;;
9056;SDS011;4563;54.756;9.400;2023-04-05T12:27:37;0.57;;;0.40;;
9056;SDS011;4563;54.756;9.400;2023-04-05T12:30:05;1.03;;;0.60;;
9056;SDS011;4563;54.756;9.400;2023-04-05T12:32:39;4.03;;;0.67;;
9056;SDS011;4563;54.756;9.400;2023-04-05T12:35:17;1.37;;;0.50;;
9056;SDS011;4563;54.756;9.400;2023-04-05T12:37:45;0.40;;;0.40;;
9056;SDS011;4563;54.756;9.400;2023-04-05T12:40:12;0.80;;;0.60;;
9056;SDS011;4563;54.756;9.400;2023-04-05T12:42:44;1.60;;;0.60;;
9056;SDS011;4563;54.756;9.400;2023-04-05T12:45:11;1.87;;;0.40;;
9056;SDS011;4563;54.756;9.400;2023-04-05T12:47:48;0.40;;;0.40;;
9056;SDS011;4563;54.756;9.400;2023-04-05T12:50:18;8.60;;;0.90;;
9056;SDS011;4563;54.756;9.400;2023-04-05T12:52:57;0.40;;;0.40;;
9056;SDS011;4563;54.756;9.400;2023-04-05T12:55:25;0.40;;;0.40;;
9056;SDS011;4563;54.756;9.400;2023-04-05T12:57:53;0.37;;;0.37;;
9056;SDS011;4563;54.756;9.400;2023-04-05T13:00:23;0.57;;;0.37;;
9056;SDS011;4563;54.756;9.400;2023-04-05T13:02:52;0.40;;;0.40;;
9056;SDS011;4563;54.756;9.400;2023-04-05T13:05:21;0.40;;;0.40;;
9056;SDS011;4563;54.756;9.400;2023-04-05T13:07:50;0.37;;;0.37;;
9056;SDS011;4563;54.756;9.400;2023-04-05T13:10:17;2.47;;;0.40;;
9056;SDS011;4563;54.756;9.400;2023-04-05T13:12:44;0.53;;;0.20;;
9056;SDS011;4563;54.756;9.400;2023-04-05T13:15:11;0.20;;;0.20;;
9056;SDS011;4563;54.756;9.400;2023-04-05T13:17:39;0.50;;;0.50;;
9056;SDS011;4563;54.756;9.400;2023-04-05T13:20:06;0.57;;;0.30;;
9056;SDS011;4563;54.756;9.400;2023-04-05T13:22:35;2.87;;;0.43;;
9056;SDS011;4563;54.756;9.400;2023-04-05T13:25:02;1.23;;;0.40;;
9056;SDS011;4563;54.756;9.400;2023-04-05T13:27:30;2.30;;;0.37;;
9056;SDS011;4563;54.756;9.400;2023-04-05T13:29:56;0.83;;;0.40;;
9056;SDS011;4563;54.756;9.400;2023-04-05T13:32:23;1.13;;;0.60;;
9056;SDS011;4563;54.756;9.400;2023-04-05T13:34:50;0.60;;;0.43;;
9056;SDS011;4563;54.756;9.400;2023-04-05T13:37:17;0.40;;;0.40;;
9056;SDS011;4563;54.756;9.400;2023-04-05T13:39:45;0.70;;;0.57;;
9056;SDS011;4563;54.756;9.400;2023-04-05T13:42:12;0.33;;;0.30;;
9056;SDS011;4563;54.756;9.400;2023-04-05T13:44:39;1.03;;;0.50;;
9056;SDS011;4563;54.756;9.400;2023-04-05T13:47:05;0.47;;;0.40;;
9056;SDS011;4563;54.756;9.400;2023-04-05T13:49:33;0.30;;;0.20;;
9056;SDS011;4563;54.756;9.400;2023-04-05T13:51:59;0.67;;;0.40;;
9056;SDS011;4563;54.756;9.400;2023-04-05T13:54:26;0.30;;;0.20;;
9056;SDS011;4563;54.756;9.400;2023-04-05T13:56:54;0.40;;;0.40;;
9056;SDS011;4563;54.756;9.400;2023-04-05T13:59:23;1.57;;;0.47;;
9056;SDS011;4563;54.756;9.400;2023-04-05T14:01:50;3.77;;;0.40;;
9056;SDS011;4563;54.756;9.400;2023-04-05T14:04:17;0.20;;;0.20;;
9056;SDS011;4563;54.756;9.400;2023-04-05T14:06:44;0.77;;;0.40;;
9056;SDS011;4563;54.756;9.400;2023-04-05T14:09:11;0.80;;;0.40;;
9056;SDS011;4563;54.756;9.400;2023-04-05T14:11:38;2.00;;;0.30;;
9056;SDS011;4563;54.756;9.400;2023-04-05T14:14:06;1.90;;;0.30;;
9056;SDS011;4563;54.756;9.400;2023-04-05T14:16:33;0.43;;;0.37;;
9056;SDS011;4563;54.756;9.400;2023-04-05T14:19:01;0.67;;;0.30;;
9056;SDS011;4563;54.756;9.400;2023-04-05T14:21:28;0.60;;;0.40;;
9056;SDS011;4563;54.756;9.400;2023-04-05T14:23:57;0.30;;;0.30;;
9056;SDS011;4563;54.756;9.400;2023-04-05T14:26:24;0.43;;;0.40;;
9056;SDS011;4563;54.756;9.400;2023-04-05T14:28:52;0.50;;;0.40;;
9056;SDS011;4563;54.756;9.400;2023-04-05T14:31:21;0.27;;;0.27;;
9056;SDS011;4563;54.756;9.400;2023-04-05T14:33:49;0.40;;;0.40;;
9056;SDS011;4563;54.756;9.400;2023-04-05T14:36:18;0.40;;;0.30;;
9056;SDS011;4563;54.756;9.400;2023-04-05T14:38:45;2.20;;;0.30;;
9056;SDS011;4563;54.756;9.400;2023-04-05T14:41:12;0.40;;;0.40;;
9056;SDS011;4563;54.756;9.400;2023-04-05T14:43:39;0.70;;;0.43;;
9056;SDS011;4563;54.756;9.400;2023-04-05T14:46:07;2.50;;;0.50;;
9056;SDS011;4563;54.756;9.400;2023-04-05T14:48:35;0.43;;;0.40;;
9056;SDS011;4563;54.756;9.400;2023-04-05T14:51:02;1.63;;;0.30;;
9056;SDS011;4563;54.756;9.400;2023-04-05T14:53:29;1.20;;;0.50;;
9056;SDS011;4563;54.756;9.400;2023-04-05T14:55:56;0.70;;;0.30;;
9056;SDS011;4563;54.756;9.400;2023-04-05T14:58:23;0.20;;;0.20;;
9056;SDS011;4563;54.756;9.400;2023-04-05T15:00:51;0.20;;;0.10;;
9056;SDS011;4563;54.756;9.400;2023-04-05T15:03:18;0.20;;;0.20;;
9056;SDS011;4563;54.756;9.400;2023-04-05T15:05:47;0.20;;;0.20;;
9056;SDS011;4563;54.756;9.400;2023-04-05T15:08:14;1.03;;;0.30;;
9056;SDS011;4563;54.756;9.400;2023-04-05T15:10:41;0.97;;;0.40;;
9056;SDS011;4563;54.756;9.400;2023-04-05T15:13:09;0.30;;;0.23;;
9056;SDS011;4563;54.756;9.400;2023-04-05T15:15:37;0.30;;;0.20;;
9056;SDS011;4563;54.756;9.400;2023-04-05T15:18:04;0.60;;;0.27;;
9056;SDS011;4563;54.756;9.400;2023-04-05T15:20:31;0.20;;;0.20;;
9056;SDS011;4563;54.756;9.400;2023-04-05T15:23:00;0.27;;;0.27;;
9056;SDS011;4563;54.756;9.400;2023-04-05T15:25:27;1.17;;;0.20;;
9056;SDS011;4563;54.756;9.400;2023-04-05T15:27:54;0.90;;;0.20;;
9056;SDS011;4563;54.756;9.400;2023-04-05T15:30:22;0.50;;;0.27;;
9056;SDS011;4563;54.756;9.400;2023-04-05T15:32:51;0.20;;;0.20;;